Seiyu Maru — JD3189 — position and weather

sailwx.info

Track history (hours):
 
Tides and Currents Weather Stations Pressure Air Temp Water Temp Dewpoint Dewpoint Depression Visibility Wind Speed Wind Dir Waves Ship Positions

Seiyu Maru

Last reported at 2017-Apr-19 13:17 UTC. Time now 2017-Apr-24 23:07 UTC.
Position N 34°06' E 135°01'.

Length 75 m; draft 4.5 m.

Type: Cargo ship. MMSI: 431002433.

Date/timePositionNaut miles runAvg speedWind from/ knotsBaromVisibWave heightAir tempDewpointWater temp
2017-Apr-19 13:17N 34°06' E 135°01'311.5
2017-Apr-19 13:00N 34°09' E 135°02'611.6
2017-Apr-19 12:30N 34°15' E 135°02'611.3
2017-Apr-19 11:57N 34°21' E 135°05'612.0
2017-Apr-19 11:27N 34°26' E 135°09'511.9
2017-Apr-19 11:00N 34°30' E 135°13'611.7
2017-Apr-19 10:30N 34°34' E 135°18'510.6
2017-Apr-19 10:00N 34°38' E 135°23'2 3.1
2017-Apr-19 09:30N 34°38' E 135°25'0 0.0
2017-Apr-19 09:00N 34°38' E 135°25'0 0.0
2017-Apr-19 08:30N 34°38' E 135°25'0 0.0
2017-Apr-19 08:00N 34°38' E 135°25'0 0.0
2017-Apr-19 07:25N 34°38' E 135°25'0 0.0
2017-Apr-19 06:59N 34°38' E 135°25'0 0.0
2017-Apr-19 06:30N 34°38' E 135°25'0 0.0
2017-Apr-19 06:00N 34°38' E 135°25'0 0.0
2017-Apr-19 05:30N 34°38' E 135°25'0 0.0
2017-Apr-19 05:00N 34°38' E 135°25'0 0.0
2017-Apr-19 04:30N 34°38' E 135°25'0 0.0
2017-Apr-19 04:00N 34°38' E 135°25'0 0.0
2017-Apr-19 03:15N 34°38' E 135°25'0 0.0
2017-Apr-19 02:57N 34°38' E 135°25'0 0.0
2017-Apr-19 02:30N 34°38' E 135°25'0 0.0
2017-Apr-19 01:59N 34°38' E 135°25'0 0.0
2017-Apr-19 01:30N 34°38' E 135°25'0 0.0
2017-Apr-19 01:00N 34°38' E 135°25'0 0.0
2017-Apr-19 00:30N 34°38' E 135°25'0 0.0
2017-Apr-18 23:54N 34°38' E 135°25'0 0.2
2017-Apr-18 23:30N 34°38' E 135°25'0 0.5
2017-Apr-18 23:00N 34°38' E 135°24'0 0.0
2017-Apr-18 22:30N 34°38' E 135°24'0 0.0
2017-Apr-18 22:00N 34°38' E 135°24'0 0.0
2017-Apr-18 21:30N 34°38' E 135°24'1 1.7
2017-Apr-18 21:00N 34°38' E 135°23'611.9
2017-Apr-18 20:30N 34°36' E 135°17'612.4
2017-Apr-18 20:00N 34°35' E 135°09'611.8
2017-Apr-18 19:30N 34°36' E 135°02'611.1
2017-Apr-18 18:58N 34°36' E 134°55'1 0.0
2017-Apr-16 15:28N 34°36' E 134°56'612.1
2017-Apr-16 14:57N 34°36' E 135°03'511.2
2017-Apr-16 14:29N 34°32' E 135°06'1611.8
2017-Apr-16 13:07N 34°15' E 135°03'111.7
2017-Apr-16 13:00N 34°15' E 135°04'3 5.4
2017-Apr-16 12:30N 34°15' E 135°07'0 0.0
2017-Apr-16 11:59N 34°15' E 135°07'0 0.0
2017-Apr-16 11:29N 34°15' E 135°07'0 0.0
2017-Apr-16 10:59N 34°15' E 135°07'0 0.0
2017-Apr-16 10:30N 34°15' E 135°07'0 0.0
2017-Apr-16 09:59N 34°15' E 135°07'0 0.0
2017-Apr-16 09:30N 34°15' E 135°07'0 0.0
2017-Apr-16 09:00N 34°15' E 135°07'0 0.0
2017-Apr-16 08:30N 34°15' E 135°07'0 0.0
2017-Apr-16 08:00N 34°15' E 135°07'0 0.0
2017-Apr-16 07:30N 34°15' E 135°07'0 0.1
2017-Apr-16 07:00N 34°15' E 135°07'0 0.1
2017-Apr-16 06:01N 34°15' E 135°07'0 0.0
2017-Apr-16 05:58N 34°15' E 135°07'0 0.0
2017-Apr-16 05:30N 34°15' E 135°07'0 0.0
2017-Apr-16 04:58N 34°15' E 135°07'0 0.1
2017-Apr-16 04:24N 34°15' E 135°07'0 0.1
2017-Apr-16 04:00N 34°15' E 135°07'1 1.3
2017-Apr-16 03:31N 34°14' E 135°06'0 0.6
2017-Apr-16 03:00N 34°15' E 135°06'0 0.0
2017-Apr-16 02:30N 34°15' E 135°06'0 0.0
2017-Apr-16 02:00N 34°15' E 135°06'0 0.0
2017-Apr-16 01:30N 34°15' E 135°06'0 0.0
2017-Apr-16 01:00N 34°15' E 135°06'0 0.1
2017-Apr-16 00:30N 34°15' E 135°06'0 0.0
2017-Apr-16 00:00N 34°15' E 135°06'1 2.1
2017-Apr-15 23:30N 34°14' E 135°05'612.5
2017-Apr-15 23:00N 34°08' E 135°03'  
2017-Apr-12 21:38N 34°54' E 139°31'310.6
2017-Apr-12 21:19N 34°56' E 139°35'410.7
2017-Apr-12 20:59N 34°58' E 139°39'510.2
2017-Apr-12 20:31N 34°60' E 139°44'5 9.7
2017-Apr-12 20:00N 35°01' E 139°50'0 0.8
2017-Apr-12 19:30N 35°00' E 139°50'0 0.0
2017-Apr-12 19:00N 35°00' E 139°50'0 0.0
2017-Apr-12 18:30N 35°00' E 139°50'0 0.0
2017-Apr-12 18:00N 35°00' E 139°50'0 0.0
2017-Apr-12 17:30N 35°00' E 139°50'0 0.0
2017-Apr-12 17:00N 35°00' E 139°50'0 0.0
2017-Apr-12 16:30N 35°00' E 139°50'0 0.0
2017-Apr-12 16:00N 35°00' E 139°50'0 0.0
2017-Apr-12 15:30N 35°00' E 139°50'0 0.0
2017-Apr-12 15:00N 35°00' E 139°50'0 0.0
2017-Apr-12 14:30N 35°00' E 139°50'0 0.0
2017-Apr-12 13:30N 35°00' E 139°50'0 0.0
2017-Apr-12 13:00N 35°00' E 139°50'0 0.1
2017-Apr-12 12:30N 35°00' E 139°50'0 0.0
2017-Apr-12 11:59N 35°00' E 139°50'0 0.1
2017-Apr-12 11:30N 35°00' E 139°50'0 0.0
2017-Apr-12 11:00N 35°00' E 139°50'0 0.0
2017-Apr-12 10:30N 35°00' E 139°50'0 0.0
2017-Apr-12 10:00N 35°00' E 139°50'0 0.0
2017-Apr-12 09:30N 35°00' E 139°50'0 0.0
2017-Apr-12 08:59N 35°00' E 139°50'0 0.0
2017-Apr-12 08:30N 35°00' E 139°50'3 5.2
2017-Apr-12 08:00N 34°60' E 139°47'  
Track history (hours):
 
Tides and Currents Weather Stations Pressure Air Temp Water Temp Dewpoint Dewpoint Depression Visibility Wind Speed Wind Dir Waves Ship Positions

Seiyu Maru

Last reported at 2017-Apr-19 13:17 UTC. Time now 2017-Apr-24 23:08 UTC.
Position N 34°06' E 135°01'.

Length 75 m; draft 4.5 m.

Type: Cargo ship. MMSI: 431002433.

Date/timePositionNaut miles runAvg speedWind from/ knotsBaromVisibWave heightAir tempDewpointWater temp
2017-Apr-19 13:17N 34°06' E 135°01'311.5
2017-Apr-19 13:00N 34°09' E 135°02'611.6
2017-Apr-19 12:30N 34°15' E 135°02'611.3
2017-Apr-19 11:57N 34°21' E 135°05'612.0
2017-Apr-19 11:27N 34°26' E 135°09'511.9
2017-Apr-19 11:00N 34°30' E 135°13'611.7
2017-Apr-19 10:30N 34°34' E 135°18'510.6
2017-Apr-19 10:00N 34°38' E 135°23'2 3.1
2017-Apr-19 09:30N 34°38' E 135°25'0 0.0
2017-Apr-19 09:00N 34°38' E 135°25'0 0.0
2017-Apr-19 08:30N 34°38' E 135°25'0 0.0
2017-Apr-19 08:00N 34°38' E 135°25'0 0.0
2017-Apr-19 07:25N 34°38' E 135°25'0 0.0
2017-Apr-19 06:59N 34°38' E 135°25'0 0.0
2017-Apr-19 06:30N 34°38' E 135°25'0 0.0
2017-Apr-19 06:00N 34°38' E 135°25'0 0.0
2017-Apr-19 05:30N 34°38' E 135°25'0 0.0
2017-Apr-19 05:00N 34°38' E 135°25'0 0.0
2017-Apr-19 04:30N 34°38' E 135°25'0 0.0
2017-Apr-19 04:00N 34°38' E 135°25'0 0.0
2017-Apr-19 03:15N 34°38' E 135°25'0 0.0
2017-Apr-19 02:57N 34°38' E 135°25'0 0.0
2017-Apr-19 02:30N 34°38' E 135°25'0 0.0
2017-Apr-19 01:59N 34°38' E 135°25'0 0.0
2017-Apr-19 01:30N 34°38' E 135°25'0 0.0
2017-Apr-19 01:00N 34°38' E 135°25'0 0.0
2017-Apr-19 00:30N 34°38' E 135°25'0 0.0
2017-Apr-18 23:54N 34°38' E 135°25'0 0.2
2017-Apr-18 23:30N 34°38' E 135°25'0 0.5
2017-Apr-18 23:00N 34°38' E 135°24'0 0.0
2017-Apr-18 22:30N 34°38' E 135°24'0 0.0
2017-Apr-18 22:00N 34°38' E 135°24'0 0.0
2017-Apr-18 21:30N 34°38' E 135°24'1 1.7
2017-Apr-18 21:00N 34°38' E 135°23'611.9
2017-Apr-18 20:30N 34°36' E 135°17'612.4
2017-Apr-18 20:00N 34°35' E 135°09'611.8
2017-Apr-18 19:30N 34°36' E 135°02'611.1
2017-Apr-18 18:58N 34°36' E 134°55'1 0.0
2017-Apr-16 15:28N 34°36' E 134°56'612.1
2017-Apr-16 14:57N 34°36' E 135°03'511.2
2017-Apr-16 14:29N 34°32' E 135°06'1611.8
2017-Apr-16 13:07N 34°15' E 135°03'111.7
2017-Apr-16 13:00N 34°15' E 135°04'3 5.4
2017-Apr-16 12:30N 34°15' E 135°07'0 0.0
2017-Apr-16 11:59N 34°15' E 135°07'0 0.0
2017-Apr-16 11:29N 34°15' E 135°07'0 0.0
2017-Apr-16 10:59N 34°15' E 135°07'0 0.0
2017-Apr-16 10:30N 34°15' E 135°07'0 0.0
2017-Apr-16 09:59N 34°15' E 135°07'0 0.0
2017-Apr-16 09:30N 34°15' E 135°07'0 0.0
2017-Apr-16 09:00N 34°15' E 135°07'0 0.0
2017-Apr-16 08:30N 34°15' E 135°07'0 0.0
2017-Apr-16 08:00N 34°15' E 135°07'0 0.0
2017-Apr-16 07:30N 34°15' E 135°07'0 0.1
2017-Apr-16 07:00N 34°15' E 135°07'0 0.1
2017-Apr-16 06:01N 34°15' E 135°07'0 0.0
2017-Apr-16 05:58N 34°15' E 135°07'0 0.0
2017-Apr-16 05:30N 34°15' E 135°07'0 0.0
2017-Apr-16 04:58N 34°15' E 135°07'0 0.1
2017-Apr-16 04:24N 34°15' E 135°07'0 0.1
2017-Apr-16 04:00N 34°15' E 135°07'1 1.3
2017-Apr-16 03:31N 34°14' E 135°06'0 0.6
2017-Apr-16 03:00N 34°15' E 135°06'0 0.0
2017-Apr-16 02:30N 34°15' E 135°06'0 0.0
2017-Apr-16 02:00N 34°15' E 135°06'0 0.0
2017-Apr-16 01:30N 34°15' E 135°06'0 0.0
2017-Apr-16 01:00N 34°15' E 135°06'0 0.1
2017-Apr-16 00:30N 34°15' E 135°06'0 0.0
2017-Apr-16 00:00N 34°15' E 135°06'1 2.1
2017-Apr-15 23:30N 34°14' E 135°05'612.5
2017-Apr-15 23:00N 34°08' E 135°03'  
2017-Apr-12 21:38N 34°54' E 139°31'310.6
2017-Apr-12 21:19N 34°56' E 139°35'410.7
2017-Apr-12 20:59N 34°58' E 139°39'510.2
2017-Apr-12 20:31N 34°60' E 139°44'5 9.7
2017-Apr-12 20:00N 35°01' E 139°50'0 0.8
2017-Apr-12 19:30N 35°00' E 139°50'0 0.0
2017-Apr-12 19:00N 35°00' E 139°50'0 0.0
2017-Apr-12 18:30N 35°00' E 139°50'0 0.0
2017-Apr-12 18:00N 35°00' E 139°50'0 0.0
2017-Apr-12 17:30N 35°00' E 139°50'0 0.0
2017-Apr-12 17:00N 35°00' E 139°50'0 0.0
2017-Apr-12 16:30N 35°00' E 139°50'0 0.0
2017-Apr-12 16:00N 35°00' E 139°50'0 0.0
2017-Apr-12 15:30N 35°00' E 139°50'0 0.0
2017-Apr-12 15:00N 35°00' E 139°50'0 0.0
2017-Apr-12 14:30N 35°00' E 139°50'0 0.0
2017-Apr-12 13:30N 35°00' E 139°50'0 0.0
2017-Apr-12 13:00N 35°00' E 139°50'0 0.1
2017-Apr-12 12:30N 35°00' E 139°50'0 0.0
2017-Apr-12 11:59N 35°00' E 139°50'0 0.1
2017-Apr-12 11:30N 35°00' E 139°50'0 0.0
2017-Apr-12 11:00N 35°00' E 139°50'0 0.0
2017-Apr-12 10:30N 35°00' E 139°50'0 0.0
2017-Apr-12 10:00N 35°00' E 139°50'0 0.0
2017-Apr-12 09:30N 35°00' E 139°50'0 0.0
2017-Apr-12 08:59N 35°00' E 139°50'0 0.0
2017-Apr-12 08:30N 35°00' E 139°50'3 5.2
2017-Apr-12 08:00N 34°60' E 139°47'  

Dump ship's entire track history